sensor_id;sensor_type;location;lat;lon;timestamp;pressure;altitude;pressure_sealevel;temperature;humidity
70133;BME280;57495;49.922;7.966;2023-06-22T00:01:23;100059.50;;;23.40;79.39
70133;BME280;57495;49.922;7.966;2023-06-22T00:03:25;100069.00;;;23.38;80.19
70133;BME280;57495;49.922;7.966;2023-06-22T00:05:26;100061.25;;;23.34;81.06
70133;BME280;57495;49.922;7.966;2023-06-22T00:07:28;100046.09;;;23.39;81.10
70133;BME280;57495;49.922;7.966;2023-06-22T00:09:31;100036.75;;;23.46;81.30
70133;BME280;57495;49.922;7.966;2023-06-22T00:11:33;100037.28;;;23.37;82.02
70133;BME280;57495;49.922;7.966;2023-06-22T00:13:34;100025.69;;;23.41;82.23
70133;BME280;57495;49.922;7.966;2023-06-22T00:15:37;100021.06;;;23.42;82.22
70133;BME280;57495;49.922;7.966;2023-06-22T00:17:39;100034.25;;;23.26;83.93
70133;BME280;57495;49.922;7.966;2023-06-22T00:19:40;100037.13;;;23.31;84.68
70133;BME280;57495;49.922;7.966;2023-06-22T00:21:43;100047.44;;;23.29;85.39
70133;BME280;57495;49.922;7.966;2023-06-22T00:23:47;100043.66;;;23.12;85.08
70133;BME280;57495;49.922;7.966;2023-06-22T00:25:50;100056.75;;;23.22;85.80
70133;BME280;57495;49.922;7.966;2023-06-22T00:27:51;100066.47;;;23.18;85.81
70133;BME280;57495;49.922;7.966;2023-06-22T00:29:53;100084.75;;;22.85;84.91
70133;BME280;57495;49.922;7.966;2023-06-22T00:31:54;100100.41;;;22.65;92.49
70133;BME280;57495;49.922;7.966;2023-06-22T00:33:55;100115.81;;;22.84;93.17
70133;BME280;57495;49.922;7.966;2023-06-22T00:35:57;100129.38;;;22.66;90.10
70133;BME280;57495;49.922;7.966;2023-06-22T00:37:59;100138.91;;;22.43;92.09
70133;BME280;57495;49.922;7.966;2023-06-22T00:40:01;100144.25;;;22.18;93.93
70133;BME280;57495;49.922;7.966;2023-06-22T00:42:06;100145.50;;;22.22;95.76
70133;BME280;57495;49.922;7.966;2023-06-22T00:44:07;100154.34;;;22.04;99.38
70133;BME280;57495;49.922;7.966;2023-06-22T00:46:09;100160.31;;;21.74;100.00
70133;BME280;57495;49.922;7.966;2023-06-22T00:48:11;100155.31;;;21.58;100.00
70133;BME280;57495;49.922;7.966;2023-06-22T00:50:17;100133.69;;;21.76;100.00
70133;BME280;57495;49.922;7.966;2023-06-22T00:52:21;100097.00;;;21.99;100.00
70133;BME280;57495;49.922;7.966;2023-06-22T00:54:27;100051.53;;;21.93;100.00
70133;BME280;57495;49.922;7.966;2023-06-22T00:56:28;99989.56;;;21.88;100.00
70133;BME280;57495;49.922;7.966;2023-06-22T00:58:31;99937.25;;;21.79;100.00
70133;BME280;57495;49.922;7.966;2023-06-22T01:00:33;99957.13;;;21.87;100.00
70133;BME280;57495;49.922;7.966;2023-06-22T01:02:35;99978.88;;;21.93;100.00
70133;BME280;57495;49.922;7.966;2023-06-22T01:04:38;99986.78;;;21.95;100.00
70133;BME280;57495;49.922;7.966;2023-06-22T01:06:44;99995.75;;;22.02;100.00
70133;BME280;57495;49.922;7.966;2023-06-22T01:08:51;100013.38;;;22.06;100.00
70133;BME280;57495;49.922;7.966;2023-06-22T01:11:00;100018.81;;;22.06;100.00
70133;BME280;57495;49.922;7.966;2023-06-22T01:13:17;100018.34;;;22.09;100.00
70133;BME280;57495;49.922;7.966;2023-06-22T01:15:26;100018.63;;;22.01;100.00
70133;BME280;57495;49.922;7.966;2023-06-22T01:17:29;100023.84;;;22.03;100.00
70133;BME280;57495;49.922;7.966;2023-06-22T01:19:39;100023.56;;;22.17;100.00
70133;BME280;57495;49.922;7.966;2023-06-22T01:21:46;100023.16;;;22.14;100.00
70133;BME280;57495;49.922;7.966;2023-06-22T01:23:56;100041.75;;;22.24;100.00
70133;BME280;57495;49.922;7.966;2023-06-22T01:26:06;100042.25;;;22.07;100.00
70133;BME280;57495;49.922;7.966;2023-06-22T01:28:20;100045.41;;;22.04;100.00
70133;BME280;57495;49.922;7.966;2023-06-22T01:30:25;100034.97;;;22.01;100.00
70133;BME280;57495;49.922;7.966;2023-06-22T01:32:30;100029.66;;;22.13;100.00
70133;BME280;57495;49.922;7.966;2023-06-22T01:34:33;100016.09;;;22.06;100.00
70133;BME280;57495;49.922;7.966;2023-06-22T01:36:35;99998.09;;;21.98;100.00
70133;BME280;57495;49.922;7.966;2023-06-22T01:38:38;99998.75;;;21.94;100.00
70133;BME280;57495;49.922;7.966;2023-06-22T01:40:40;99993.72;;;21.91;100.00
70133;BME280;57495;49.922;7.966;2023-06-22T01:42:41;99997.53;;;21.90;100.00
70133;BME280;57495;49.922;7.966;2023-06-22T01:44:44;99993.53;;;21.86;100.00
70133;BME280;57495;49.922;7.966;2023-06-22T01:46:48;99996.28;;;21.86;100.00
70133;BME280;57495;49.922;7.966;2023-06-22T01:48:50;99988.34;;;21.84;100.00
70133;BME280;57495;49.922;7.966;2023-06-22T01:50:52;99977.66;;;21.83;100.00
70133;BME280;57495;49.922;7.966;2023-06-22T01:52:54;99970.13;;;21.85;100.00
70133;BME280;57495;49.922;7.966;2023-06-22T01:54:55;99972.66;;;21.73;100.00
70133;BME280;57495;49.922;7.966;2023-06-22T01:56:58;99977.28;;;21.72;100.00
70133;BME280;57495;49.922;7.966;2023-06-22T01:59:04;99978.50;;;21.76;100.00
70133;BME280;57495;49.922;7.966;2023-06-22T02:01:10;99991.09;;;21.77;100.00
70133;BME280;57495;49.922;7.966;2023-06-22T02:03:17;99999.47;;;21.76;100.00
70133;BME280;57495;49.922;7.966;2023-06-22T02:05:20;100004.91;;;21.83;100.00
70133;BME280;57495;49.922;7.966;2023-06-22T02:07:23;100010.16;;;21.71;100.00
70133;BME280;57495;49.922;7.966;2023-06-22T02:09:29;100016.63;;;21.76;100.00
70133;BME280;57495;49.922;7.966;2023-06-22T02:11:31;100026.88;;;21.81;100.00
70133;BME280;57495;49.922;7.966;2023-06-22T02:13:34;100036.69;;;21.89;100.00
70133;BME280;57495;49.922;7.966;2023-06-22T02:15:36;100051.19;;;21.83;100.00
70133;BME280;57495;49.922;7.966;2023-06-22T02:17:38;100048.31;;;21.57;100.00
70133;BME280;57495;49.922;7.966;2023-06-22T02:19:42;100032.97;;;21.76;100.00
70133;BME280;57495;49.922;7.966;2023-06-22T02:21:43;100033.66;;;21.65;100.00
70133;BME280;57495;49.922;7.966;2023-06-22T02:23:44;100035.56;;;21.58;100.00
70133;BME280;57495;49.922;7.966;2023-06-22T02:25:46;100011.25;;;21.63;100.00
70133;BME280;57495;49.922;7.966;2023-06-22T02:27:47;99992.59;;;21.67;100.00
70133;BME280;57495;49.922;7.966;2023-06-22T02:29:49;99976.31;;;21.60;100.00
70133;BME280;57495;49.922;7.966;2023-06-22T02:31:50;99964.78;;;21.58;100.00
70133;BME280;57495;49.922;7.966;2023-06-22T02:33:52;99958.91;;;21.61;100.00
70133;BME280;57495;49.922;7.966;2023-06-22T02:35:55;99952.66;;;21.60;100.00
70133;BME280;57495;49.922;7.966;2023-06-22T02:37:56;99953.06;;;21.64;100.00
70133;BME280;57495;49.922;7.966;2023-06-22T02:39:57;99950.34;;;21.57;100.00
70133;BME280;57495;49.922;7.966;2023-06-22T02:41:59;99954.78;;;21.52;100.00
70133;BME280;57495;49.922;7.966;2023-06-22T02:44:00;99953.94;;;21.51;100.00
70133;BME280;57495;49.922;7.966;2023-06-22T02:46:02;99961.53;;;21.36;100.00
70133;BME280;57495;49.922;7.966;2023-06-22T02:48:04;99957.91;;;21.55;100.00
70133;BME280;57495;49.922;7.966;2023-06-22T02:50:06;99946.81;;;21.50;100.00
70133;BME280;57495;49.922;7.966;2023-06-22T02:52:09;99958.13;;;21.54;100.00
70133;BME280;57495;49.922;7.966;2023-06-22T02:54:10;99955.22;;;21.35;100.00
70133;BME280;57495;49.922;7.966;2023-06-22T02:56:12;99950.41;;;21.37;100.00
70133;BME280;57495;49.922;7.966;2023-06-22T02:58:14;99933.47;;;21.35;100.00
70133;BME280;57495;49.922;7.966;2023-06-22T03:00:15;99931.19;;;21.26;100.00
70133;BME280;57495;49.922;7.966;2023-06-22T03:02:18;99928.81;;;21.42;100.00
70133;BME280;57495;49.922;7.966;2023-06-22T03:04:21;99930.09;;;21.47;100.00
70133;BME280;57495;49.922;7.966;2023-06-22T03:06:23;99928.63;;;21.44;100.00
70133;BME280;57495;49.922;7.966;2023-06-22T03:08:29;99931.78;;;21.48;100.00
70133;BME280;57495;49.922;7.966;2023-06-22T03:10:31;99933.63;;;21.54;100.00
70133;BME280;57495;49.922;7.966;2023-06-22T03:12:32;99929.91;;;21.41;100.00
70133;BME280;57495;49.922;7.966;2023-06-22T03:14:34;99931.16;;;21.46;100.00
70133;BME280;57495;49.922;7.966;2023-06-22T03:16:35;99929.66;;;21.43;100.00
70133;BME280;57495;49.922;7.966;2023-06-22T03:18:37;99932.19;;;21.45;100.00
70133;BME280;57495;49.922;7.966;2023-06-22T03:20:39;99935.78;;;21.45;100.00
70133;BME280;57495;49.922;7.966;2023-06-22T03:22:41;99928.00;;;21.35;100.00
70133;BME280;57495;49.922;7.966;2023-06-22T03:24:45;99929.25;;;21.39;100.00
70133;BME280;57495;49.922;7.966;2023-06-22T03:26:46;99920.06;;;21.40;100.00
70133;BME280;57495;49.922;7.966;2023-06-22T03:28:48;99918.44;;;21.26;100.00
70133;BME280;57495;49.922;7.966;2023-06-22T03:30:50;99917.13;;;21.35;100.00
70133;BME280;57495;49.922;7.966;2023-06-22T03:32:51;99916.31;;;21.35;100.00
70133;BME280;57495;49.922;7.966;2023-06-22T03:34:53;99910.03;;;21.34;100.00
70133;BME280;57495;49.922;7.966;2023-06-22T03:36:59;99909.63;;;21.31;100.00
70133;BME280;57495;49.922;7.966;2023-06-22T03:39:00;99908.78;;;21.30;100.00
70133;BME280;57495;49.922;7.966;2023-06-22T03:41:03;99916.78;;;21.25;100.00
70133;BME280;57495;49.922;7.966;2023-06-22T03:43:04;99923.03;;;21.32;100.00
70133;BME280;57495;49.922;7.966;2023-06-22T03:45:07;99921.97;;;21.33;100.00
70133;BME280;57495;49.922;7.966;2023-06-22T03:47:08;99918.00;;;21.29;100.00
70133;BME280;57495;49.922;7.966;2023-06-22T03:49:10;99916.72;;;21.38;100.00
70133;BME280;57495;49.922;7.966;2023-06-22T03:51:11;99914.00;;;21.38;100.00
70133;BME280;57495;49.922;7.966;2023-06-22T03:53:12;99923.19;;;21.37;100.00
70133;BME280;57495;49.922;7.966;2023-06-22T03:55:14;99920.88;;;21.41;100.00
70133;BME280;57495;49.922;7.966;2023-06-22T03:57:17;99925.81;;;21.05;100.00
70133;BME280;57495;49.922;7.966;2023-06-22T03:59:18;99927.97;;;20.90;100.00
70133;BME280;57495;49.922;7.966;2023-06-22T04:01:20;99931.06;;;21.00;100.00
70133;BME280;57495;49.922;7.966;2023-06-22T04:03:21;99934.34;;;21.22;100.00
70133;BME280;57495;49.922;7.966;2023-06-22T04:05:22;99933.72;;;21.27;100.00
70133;BME280;57495;49.922;7.966;2023-06-22T04:07:24;99935.97;;;21.30;100.00
70133;BME280;57495;49.922;7.966;2023-06-22T04:09:26;99940.19;;;21.26;100.00
70133;BME280;57495;49.922;7.966;2023-06-22T04:11:27;99939.38;;;21.26;100.00
70133;BME280;57495;49.922;7.966;2023-06-22T04:13:30;99946.44;;;21.33;100.00
70133;BME280;57495;49.922;7.966;2023-06-22T04:15:31;99948.13;;;21.34;100.00
70133;BME280;57495;49.922;7.966;2023-06-22T04:17:33;99950.22;;;21.32;100.00
70133;BME280;57495;49.922;7.966;2023-06-22T04:19:34;99956.97;;;21.23;100.00
70133;BME280;57495;49.922;7.966;2023-06-22T04:21:35;99954.00;;;21.24;100.00
70133;BME280;57495;49.922;7.966;2023-06-22T04:23:37;99953.56;;;21.34;100.00
70133;BME280;57495;49.922;7.966;2023-06-22T04:25:39;99953.56;;;21.34;100.00
70133;BME280;57495;49.922;7.966;2023-06-22T04:27:40;99951.88;;;21.40;100.00
70133;BME280;57495;49.922;7.966;2023-06-22T04:29:43;99942.06;;;21.32;100.00
70133;BME280;57495;49.922;7.966;2023-06-22T04:31:48;99941.88;;;21.27;100.00
70133;BME280;57495;49.922;7.966;2023-06-22T04:33:50;99946.50;;;21.27;100.00
70133;BME280;57495;49.922;7.966;2023-06-22T04:35:53;99939.09;;;21.34;100.00
70133;BME280;57495;49.922;7.966;2023-06-22T04:37:58;99939.78;;;21.29;100.00
70133;BME280;57495;49.922;7.966;2023-06-22T04:39:59;99926.78;;;21.31;100.00
70133;BME280;57495;49.922;7.966;2023-06-22T04:42:01;99928.47;;;21.26;100.00
70133;BME280;57495;49.922;7.966;2023-06-22T04:44:02;99930.78;;;21.22;100.00
70133;BME280;57495;49.922;7.966;2023-06-22T04:46:06;99935.00;;;21.18;100.00
70133;BME280;57495;49.922;7.966;2023-06-22T04:48:08;99942.72;;;21.21;100.00
70133;BME280;57495;49.922;7.966;2023-06-22T04:50:10;99939.81;;;21.16;100.00
70133;BME280;57495;49.922;7.966;2023-06-22T04:52:13;99940.19;;;21.26;100.00
70133;BME280;57495;49.922;7.966;2023-06-22T04:54:20;99935.16;;;21.30;100.00
70133;BME280;57495;49.922;7.966;2023-06-22T04:56:21;99938.53;;;21.25;100.00
70133;BME280;57495;49.922;7.966;2023-06-22T04:58:28;99928.06;;;21.29;100.00
70133;BME280;57495;49.922;7.966;2023-06-22T05:00:32;99932.03;;;21.26;100.00
70133;BME280;57495;49.922;7.966;2023-06-22T05:02:38;99937.25;;;21.34;100.00
70133;BME280;57495;49.922;7.966;2023-06-22T05:04:39;99926.09;;;21.42;100.00
70133;BME280;57495;49.922;7.966;2023-06-22T05:06:40;99923.81;;;21.39;100.00
70133;BME280;57495;49.922;7.966;2023-06-22T05:08:42;99929.25;;;21.39;100.00
70133;BME280;57495;49.922;7.966;2023-06-22T05:10:43;99927.97;;;21.49;100.00
70133;BME280;57495;49.922;7.966;2023-06-22T05:12:45;99932.13;;;21.58;100.00
70133;BME280;57495;49.922;7.966;2023-06-22T05:14:47;99927.47;;;21.65;100.00
70133;BME280;57495;49.922;7.966;2023-06-22T05:16:49;99924.53;;;21.73;100.00
70133;BME280;57495;49.922;7.966;2023-06-22T05:18:53;99921.19;;;21.71;100.00
70133;BME280;57495;49.922;7.966;2023-06-22T05:20:55;99909.00;;;21.80;100.00
70133;BME280;57495;49.922;7.966;2023-06-22T05:22:56;99910.63;;;21.81;100.00
70133;BME280;57495;49.922;7.966;2023-06-22T05:24:58;99903.44;;;21.94;100.00
70133;BME280;57495;49.922;7.966;2023-06-22T05:26:59;99896.28;;;21.99;100.00
70133;BME280;57495;49.922;7.966;2023-06-22T05:29:02;99900.50;;;21.95;100.00
70133;BME280;57495;49.922;7.966;2023-06-22T05:31:03;99907.56;;;22.03;100.00
70133;BME280;57495;49.922;7.966;2023-06-22T05:33:05;99909.22;;;22.04;100.00
70133;BME280;57495;49.922;7.966;2023-06-22T05:35:08;99914.22;;;22.07;100.00
70133;BME280;57495;49.922;7.966;2023-06-22T05:37:10;99905.16;;;22.13;100.00
70133;BME280;57495;49.922;7.966;2023-06-22T05:39:13;99902.63;;;22.18;100.00
70133;BME280;57495;49.922;7.966;2023-06-22T05:41:15;99901.78;;;22.18;100.00
70133;BME280;57495;49.922;7.966;2023-06-22T05:43:16;99902.53;;;22.32;100.00
70133;BME280;57495;49.922;7.966;2023-06-22T05:45:18;99904.38;;;22.38;100.00
70133;BME280;57495;49.922;7.966;2023-06-22T05:47:19;99901.19;;;22.41;100.00
70133;BME280;57495;49.922;7.966;2023-06-22T05:49:20;99909.31;;;22.48;100.00
70133;BME280;57495;49.922;7.966;2023-06-22T05:51:23;99914.25;;;22.57;100.00
70133;BME280;57495;49.922;7.966;2023-06-22T05:53:25;99903.28;;;22.64;100.00
70133;BME280;57495;49.922;7.966;2023-06-22T05:55:26;99905.34;;;22.69;100.00
70133;BME280;57495;49.922;7.966;2023-06-22T05:57:28;99916.25;;;22.69;100.00
70133;BME280;57495;49.922;7.966;2023-06-22T05:59:29;99911.88;;;22.68;100.00
70133;BME280;57495;49.922;7.966;2023-06-22T06:01:31;99913.47;;;22.75;100.00
70133;BME280;57495;49.922;7.966;2023-06-22T06:03:35;99913.53;;;22.87;100.00
70133;BME280;57495;49.922;7.966;2023-06-22T06:05:41;99915.59;;;22.92;100.00
70133;BME280;57495;49.922;7.966;2023-06-22T06:07:45;99917.78;;;22.83;100.00
70133;BME280;57495;49.922;7.966;2023-06-22T06:09:46;99905.50;;;22.92;100.00
70133;BME280;57495;49.922;7.966;2023-06-22T06:11:48;99900.38;;;23.03;100.00
70133;BME280;57495;49.922;7.966;2023-06-22T06:13:49;99901.16;;;23.10;100.00
70133;BME280;57495;49.922;7.966;2023-06-22T06:15:50;99906.00;;;23.08;100.00
70133;BME280;57495;49.922;7.966;2023-06-22T06:17:55;99903.91;;;23.10;100.00
70133;BME280;57495;49.922;7.966;2023-06-22T06:19:56;99904.72;;;23.10;100.00
70133;BME280;57495;49.922;7.966;2023-06-22T06:21:57;99905.84;;;23.21;100.00
70133;BME280;57495;49.922;7.966;2023-06-22T06:24:00;99902.66;;;23.24;100.00
70133;BME280;57495;49.922;7.966;2023-06-22T06:26:01;99903.72;;;23.23;98.26
70133;BME280;57495;49.922;7.966;2023-06-22T06:28:07;99901.44;;;23.20;96.77
70133;BME280;57495;49.922;7.966;2023-06-22T06:30:09;99897.28;;;23.18;96.72
70133;BME280;57495;49.922;7.966;2023-06-22T06:32:11;99895.53;;;23.23;96.54
70133;BME280;57495;49.922;7.966;2023-06-22T06:34:12;99886.38;;;23.48;97.49
70133;BME280;57495;49.922;7.966;2023-06-22T06:36:13;99882.63;;;23.61;96.45
70133;BME280;57495;49.922;7.966;2023-06-22T06:38:15;99891.34;;;23.69;95.85
70133;BME280;57495;49.922;7.966;2023-06-22T06:40:18;99895.56;;;23.84;96.58
70133;BME280;57495;49.922;7.966;2023-06-22T06:42:20;99899.63;;;23.93;94.60
70133;BME280;57495;49.922;7.966;2023-06-22T06:44:23;99897.16;;;23.91;94.08
70133;BME280;57495;49.922;7.966;2023-06-22T06:46:24;99902.34;;;23.81;93.21
70133;BME280;57495;49.922;7.966;2023-06-22T06:48:26;99897.50;;;23.95;93.77
70133;BME280;57495;49.922;7.966;2023-06-22T06:50:27;99892.75;;;24.02;94.36
70133;BME280;57495;49.922;7.966;2023-06-22T06:52:29;99882.53;;;24.09;91.53
70133;BME280;57495;49.922;7.966;2023-06-22T06:54:30;99894.22;;;24.17;91.95
70133;BME280;57495;49.922;7.966;2023-06-22T06:56:33;99888.63;;;24.35;93.70
70133;BME280;57495;49.922;7.966;2023-06-22T06:58:34;99883.19;;;24.47;91.78
70133;BME280;57495;49.922;7.966;2023-06-22T07:00:36;99885.34;;;24.68;91.15
70133;BME280;57495;49.922;7.966;2023-06-22T07:02:39;99882.84;;;24.67;89.56
70133;BME280;57495;49.922;7.966;2023-06-22T07:04:41;99890.09;;;24.73;88.60
70133;BME280;57495;49.922;7.966;2023-06-22T07:06:42;99900.44;;;24.83;87.00
70133;BME280;57495;49.922;7.966;2023-06-22T07:08:44;99898.16;;;24.92;85.84
70133;BME280;57495;49.922;7.966;2023-06-22T07:10:46;99890.31;;;24.95;86.13
70133;BME280;57495;49.922;7.966;2023-06-22T07:12:49;99884.56;;;25.08;85.63
70133;BME280;57495;49.922;7.966;2023-06-22T07:14:51;99888.00;;;25.04;83.61
70133;BME280;57495;49.922;7.966;2023-06-22T07:16:53;99882.28;;;25.29;84.96
70133;BME280;57495;49.922;7.966;2023-06-22T07:18:54;99874.78;;;25.53;86.28
70133;BME280;57495;49.922;7.966;2023-06-22T07:20:55;99880.63;;;25.57;83.13
70133;BME280;57495;49.922;7.966;2023-06-22T07:22:57;99875.66;;;25.71;83.03
70133;BME280;57495;49.922;7.966;2023-06-22T07:24:59;99875.59;;;25.82;82.93
70133;BME280;57495;49.922;7.966;2023-06-22T07:27:01;99872.22;;;25.92;82.05
70133;BME280;57495;49.922;7.966;2023-06-22T07:29:05;99871.03;;;25.88;79.82
70133;BME280;57495;49.922;7.966;2023-06-22T07:31:06;99868.31;;;25.88;79.49
70133;BME280;57495;49.922;7.966;2023-06-22T07:33:08;99866.94;;;26.02;77.54
70133;BME280;57495;49.922;7.966;2023-06-22T07:35:09;99859.28;;;26.21;79.38
70133;BME280;57495;49.922;7.966;2023-06-22T07:37:11;99857.75;;;26.48;80.53
70133;BME280;57495;49.922;7.966;2023-06-22T07:39:12;99854.28;;;26.52;77.40
70133;BME280;57495;49.922;7.966;2023-06-22T07:41:14;99855.66;;;26.55;77.39
70133;BME280;57495;49.922;7.966;2023-06-22T07:43:16;99849.75;;;26.63;77.37
70133;BME280;57495;49.922;7.966;2023-06-22T07:45:18;99845.44;;;26.67;74.83
70133;BME280;57495;49.922;7.966;2023-06-22T07:47:20;99851.19;;;26.66;74.93
70133;BME280;57495;49.922;7.966;2023-06-22T07:49:25;99857.69;;;26.81;75.59
70133;BME280;57495;49.922;7.966;2023-06-22T07:51:26;99862.63;;;26.79;73.91
70133;BME280;57495;49.922;7.966;2023-06-22T07:53:28;99858.22;;;26.78;74.75
70133;BME280;57495;49.922;7.966;2023-06-22T07:55:29;99860.13;;;26.78;74.13
70133;BME280;57495;49.922;7.966;2023-06-22T07:57:30;99855.03;;;26.87;73.36
70133;BME280;57495;49.922;7.966;2023-06-22T07:59:33;99860.59;;;26.92;73.22
70133;BME280;57495;49.922;7.966;2023-06-22T08:01:36;99845.97;;;27.08;72.52
70133;BME280;57495;49.922;7.966;2023-06-22T08:03:37;99833.00;;;27.26;73.02
70133;BME280;57495;49.922;7.966;2023-06-22T08:05:39;99834.25;;;27.40;72.33
70133;BME280;57495;49.922;7.966;2023-06-22T08:07:41;99834.19;;;27.35;69.85
70133;BME280;57495;49.922;7.966;2023-06-22T08:09:46;99827.88;;;27.34;70.80
70133;BME280;57495;49.922;7.966;2023-06-22T08:11:48;99819.38;;;27.63;72.71
70133;BME280;57495;49.922;7.966;2023-06-22T08:13:49;99816.06;;;27.61;70.20
70133;BME280;57495;49.922;7.966;2023-06-22T08:15:51;99823.84;;;27.42;68.86
70133;BME280;57495;49.922;7.966;2023-06-22T08:17:53;99819.16;;;27.43;68.13
70133;BME280;57495;49.922;7.966;2023-06-22T08:19:55;99816.59;;;27.58;69.29
70133;BME280;57495;49.922;7.966;2023-06-22T08:21:56;99817.50;;;27.69;67.71
70133;BME280;57495;49.922;7.966;2023-06-22T08:23:58;99816.78;;;27.51;67.35
70133;BME280;57495;49.922;7.966;2023-06-22T08:25:59;99824.66;;;27.70;69.31
70133;BME280;57495;49.922;7.966;2023-06-22T08:28:01;99823.78;;;27.91;67.80
70133;BME280;57495;49.922;7.966;2023-06-22T08:30:03;99802.66;;;27.97;67.22
70133;BME280;57495;49.922;7.966;2023-06-22T08:32:05;99813.41;;;28.41;69.71
70133;BME280;57495;49.922;7.966;2023-06-22T08:34:08;99803.06;;;28.16;67.96
70133;BME280;57495;49.922;7.966;2023-06-22T08:36:09;99799.78;;;28.19;64.82
70133;BME280;57495;49.922;7.966;2023-06-22T08:38:11;99794.66;;;27.95;65.80
70133;BME280;57495;49.922;7.966;2023-06-22T08:40:15;99793.91;;;28.05;66.87
70133;BME280;57495;49.922;7.966;2023-06-22T08:42:17;99786.84;;;28.20;66.59
70133;BME280;57495;49.922;7.966;2023-06-22T08:44:19;99791.19;;;28.53;66.90
70133;BME280;57495;49.922;7.966;2023-06-22T08:46:20;99788.94;;;28.50;66.36
70133;BME280;57495;49.922;7.966;2023-06-22T08:48:23;99788.34;;;28.43;65.23
70133;BME280;57495;49.922;7.966;2023-06-22T08:50:26;99790.13;;;28.17;68.20
70133;BME280;57495;49.922;7.966;2023-06-22T08:52:27;99783.59;;;28.23;66.18
70133;BME280;57495;49.922;7.966;2023-06-22T08:54:29;99781.25;;;28.52;66.53
70133;BME280;57495;49.922;7.966;2023-06-22T08:56:34;99778.66;;;28.72;65.31
70133;BME280;57495;49.922;7.966;2023-06-22T08:58:36;99786.28;;;28.18;66.14
70133;BME280;57495;49.922;7.966;2023-06-22T09:00:37;99769.63;;;28.34;65.02
70133;BME280;57495;49.922;7.966;2023-06-22T09:02:38;99777.09;;;28.44;67.34
70133;BME280;57495;49.922;7.966;2023-06-22T09:04:40;99781.81;;;28.49;65.34
70133;BME280;57495;49.922;7.966;2023-06-22T09:06:43;99780.94;;;28.43;63.80
70133;BME280;57495;49.922;7.966;2023-06-22T09:08:46;99780.75;;;28.55;65.75
70133;BME280;57495;49.922;7.966;2023-06-22T09:10:48;99780.91;;;28.38;65.24
70133;BME280;57495;49.922;7.966;2023-06-22T09:12:49;99783.81;;;28.64;65.21
70133;BME280;57495;49.922;7.966;2023-06-22T09:14:50;99771.91;;;29.16;65.20
70133;BME280;57495;49.922;7.966;2023-06-22T09:16:52;99772.47;;;29.23;65.38
70133;BME280;57495;49.922;7.966;2023-06-22T09:18:53;99778.03;;;29.54;65.49
70133;BME280;57495;49.922;7.966;2023-06-22T09:20:54;99771.41;;;29.45;63.07
70133;BME280;57495;49.922;7.966;2023-06-22T09:22:57;99769.47;;;29.61;63.17
70133;BME280;57495;49.922;7.966;2023-06-22T09:24:59;99769.63;;;28.98;62.24
70133;BME280;57495;49.922;7.966;2023-06-22T09:27:01;99769.50;;;28.62;64.75
70133;BME280;57495;49.922;7.966;2023-06-22T09:29:04;99768.66;;;28.61;65.20
70133;BME280;57495;49.922;7.966;2023-06-22T09:31:06;99759.38;;;28.83;64.45
70133;BME280;57495;49.922;7.966;2023-06-22T09:33:07;99751.69;;;28.85;63.39
70133;BME280;57495;49.922;7.966;2023-06-22T09:35:09;99747.06;;;29.11;62.48
70133;BME280;57495;49.922;7.966;2023-06-22T09:37:13;99746.84;;;29.33;62.79
70133;BME280;57495;49.922;7.966;2023-06-22T09:39:17;99754.06;;;29.60;61.67
70133;BME280;57495;49.922;7.966;2023-06-22T09:41:18;99745.22;;;29.73;61.85
70133;BME280;57495;49.922;7.966;2023-06-22T09:43:20;99735.81;;;30.10;61.62
70133;BME280;57495;49.922;7.966;2023-06-22T09:45:21;99728.56;;;30.30;59.79
70133;BME280;57495;49.922;7.966;2023-06-22T09:47:22;99726.91;;;30.39;59.86
70133;BME280;57495;49.922;7.966;2023-06-22T09:49:24;99722.22;;;30.29;59.56
70133;BME280;57495;49.922;7.966;2023-06-22T09:51:25;99713.06;;;30.54;61.43
70133;BME280;57495;49.922;7.966;2023-06-22T09:53:26;99719.47;;;30.39;59.60
70133;BME280;57495;49.922;7.966;2023-06-22T09:55:30;99718.13;;;30.21;60.17
70133;BME280;57495;49.922;7.966;2023-06-22T09:57:31;99708.28;;;29.84;59.29
70133;BME280;57495;49.922;7.966;2023-06-22T09:59:33;99720.63;;;29.10;59.61
70133;BME280;57495;49.922;7.966;2023-06-22T10:01:34;99721.50;;;29.16;60.86
70133;BME280;57495;49.922;7.966;2023-06-22T10:03:35;99716.72;;;28.85;60.40
70133;BME280;57495;49.922;7.966;2023-06-22T10:05:37;99708.41;;;28.65;61.20
70133;BME280;57495;49.922;7.966;2023-06-22T10:07:38;99713.19;;;28.95;62.76
70133;BME280;57495;49.922;7.966;2023-06-22T10:09:42;99714.84;;;28.91;61.56
70133;BME280;57495;49.922;7.966;2023-06-22T10:11:45;99705.75;;;29.01;62.29
70133;BME280;57495;49.922;7.966;2023-06-22T10:13:46;99700.25;;;29.11;61.89
70133;BME280;57495;49.922;7.966;2023-06-22T10:15:48;99694.50;;;29.28;63.07
70133;BME280;57495;49.922;7.966;2023-06-22T10:17:51;99690.91;;;29.68;61.23
70133;BME280;57495;49.922;7.966;2023-06-22T10:19:52;99685.69;;;29.77;59.03
70133;BME280;57495;49.922;7.966;2023-06-22T10:21:54;99682.06;;;29.72;59.50
70133;BME280;57495;49.922;7.966;2023-06-22T10:23:55;99680.72;;;29.74;59.75
70133;BME280;57495;49.922;7.966;2023-06-22T10:25:56;99683.47;;;29.74;58.66
70133;BME280;57495;49.922;7.966;2023-06-22T10:27:59;99667.47;;;29.86;58.34
70133;BME280;57495;49.922;7.966;2023-06-22T10:30:01;99676.22;;;30.09;58.47
70133;BME280;57495;49.922;7.966;2023-06-22T10:32:03;99672.31;;;30.20;56.89
70133;BME280;57495;49.922;7.966;2023-06-22T10:34:05;99669.84;;;30.19;56.90
70133;BME280;57495;49.922;7.966;2023-06-22T10:36:06;99657.34;;;30.42;57.30
70133;BME280;57495;49.922;7.966;2023-06-22T10:38:08;99657.00;;;30.59;57.21
70133;BME280;57495;49.922;7.966;2023-06-22T10:40:10;99664.84;;;30.36;55.89
70133;BME280;57495;49.922;7.966;2023-06-22T10:42:12;99656.28;;;30.38;56.53